Hayama Star — 3EGP2 — position and weather

sailwx.info

Track history (hours):
 
Tides and Currents Weather Stations Pressure Air Temp Water Temp Dewpoint Dewpoint Depression Visibility Wind Speed Wind Dir Waves Ship Positions

Hayama Star

Last reported at 2018-May-03 20:38 UTC. Time now 2018-Jun-23 19:18 UTC.
Position N 34°54' E 140°26'.
Warning: this ship's position is 50 days out of date.

Length 188 m; draft 11.8 m.

Type: Cargo ship. MMSI: 355291000.

Date/timePositionNaut miles runAvg speedWind from/ knotsBaromVisibWave heightAir tempDewpointWater temp
2018-May-03 20:38N 34°54' E 140°26'313.0
2018-May-03 20:25N 34°51' E 140°24'812.8
2018-May-03 19:47N 34°46' E 140°17'1113.7
2018-May-03 18:59N 34°39' E 140°07'1314.2
2018-May-03 18:07N 34°32' E 139°54'213.9
2018-May-03 18:00N 34°31' E 139°53'1413.9
2018-May-03 17:01N 34°23' E 139°39'014.9
2018-May-03 17:00N 34°23' E 139°39'713.4
2018-May-03 16:30N 34°19' E 139°32'  
Track history (hours):
 
Tides and Currents Weather Stations Pressure Air Temp Water Temp Dewpoint Dewpoint Depression Visibility Wind Speed Wind Dir Waves Ship Positions

Hayama Star

Last reported at 2018-May-03 20:38 UTC. Time now 2018-Jun-23 19:18 UTC.
Position N 34°54' E 140°26'.
Warning: this ship's position is 50 days out of date.

Length 188 m; draft 11.8 m.

Type: Cargo ship. MMSI: 355291000.

Date/timePositionNaut miles runAvg speedWind from/ knotsBaromVisibWave heightAir tempDewpointWater temp
2018-May-03 20:38N 34°54' E 140°26'313.0
2018-May-03 20:25N 34°51' E 140°24'812.8
2018-May-03 19:47N 34°46' E 140°17'1113.7
2018-May-03 18:59N 34°39' E 140°07'1314.2
2018-May-03 18:07N 34°32' E 139°54'213.9
2018-May-03 18:00N 34°31' E 139°53'1413.9
2018-May-03 17:01N 34°23' E 139°39'014.9
2018-May-03 17:00N 34°23' E 139°39'713.4
2018-May-03 16:30N 34°19' E 139°32'  

Dump ship's entire track history